createdAt,value
2022-12-09T00:02:15.405Z,2.80
2022-12-09T00:08:09.231Z,2.90
2022-12-09T00:11:17.043Z,2.60
2022-12-09T00:14:11.040Z,2.70
2022-12-09T00:16:59.093Z,2.70
2022-12-09T00:19:42.822Z,2.50
2022-12-09T00:22:32.756Z,2.60
2022-12-09T00:25:25.920Z,2.60
2022-12-09T00:34:22.463Z,2.60
2022-12-09T00:37:38.210Z,2.60
2022-12-09T00:40:42.283Z,2.70
2022-12-09T00:53:26.906Z,2.70
2022-12-09T00:59:40.043Z,2.60
2022-12-09T01:05:41.290Z,2.70
2022-12-09T01:12:06.248Z,2.60
2022-12-09T01:18:11.147Z,2.40
2022-12-09T01:24:00.223Z,2.60
2022-12-09T01:26:57.254Z,2.60
2022-12-09T01:33:23.329Z,2.60
2022-12-09T01:39:22.340Z,2.70
2022-12-09T01:42:33.565Z,2.70
2022-12-09T01:46:05.543Z,2.80
2022-12-09T01:48:52.962Z,2.60
2022-12-09T01:54:46.934Z,2.50
2022-12-09T01:57:40.675Z,2.60
2022-12-09T02:03:35.389Z,2.50
2022-12-09T02:09:05.250Z,2.40
2022-12-09T02:15:18.612Z,2.60
2022-12-09T02:21:20.821Z,2.50
2022-12-09T02:24:10.756Z,2.60
2022-12-09T02:27:22.374Z,2.60
2022-12-09T02:33:30.289Z,2.70
2022-12-09T02:36:39.896Z,2.60
2022-12-09T02:48:34.896Z,2.60
2022-12-09T02:51:20.074Z,2.50
2022-12-09T02:53:53.282Z,2.50
2022-12-09T03:03:16.630Z,2.60
2022-12-09T03:06:06.586Z,2.50
2022-12-09T03:11:52.098Z,2.60
2022-12-09T03:14:38.887Z,2.60
2022-12-09T03:17:14.203Z,2.50
2022-12-09T03:19:47.267Z,2.60
2022-12-09T03:22:17.541Z,2.50
2022-12-09T03:24:53.099Z,2.40
2022-12-09T03:27:33.705Z,2.30
2022-12-09T03:30:08.169Z,2.40
2022-12-09T03:32:39.627Z,2.40
2022-12-09T03:35:12.600Z,2.40
2022-12-09T03:37:44.099Z,2.30
2022-12-09T03:40:33.014Z,2.40
2022-12-09T03:43:20.945Z,2.40
2022-12-09T03:46:02.639Z,2.30
2022-12-09T03:48:36.403Z,2.30
2022-12-09T03:51:20.433Z,2.20
2022-12-09T03:54:04.648Z,2.20
2022-12-09T03:56:50.738Z,2.20
2022-12-09T03:59:22.451Z,2.10
2022-12-09T04:02:10.850Z,2.20
2022-12-09T04:04:45.983Z,2.20
2022-12-09T04:07:25.485Z,2.20
2022-12-09T04:10:05.588Z,2.20
2022-12-09T04:12:39.250Z,2.10
2022-12-09T04:15:15.891Z,2.10
2022-12-09T04:17:52.752Z,2.20
2022-12-09T04:20:49.625Z,2.10
2022-12-09T04:23:29.108Z,2.20
2022-12-09T04:26:05.991Z,2.20
2022-12-09T04:28:37.171Z,2.20
2022-12-09T04:31:18.094Z,2.30
2022-12-09T04:36:52.208Z,2.40
2022-12-09T04:42:21.829Z,2.40
2022-12-09T04:44:57.889Z,2.40
2022-12-09T04:47:28.549Z,2.40
2022-12-09T04:49:57.798Z,2.30
2022-12-09T04:52:45.532Z,2.30
2022-12-09T04:55:31.728Z,2.20
2022-12-09T04:58:19.665Z,2.20
2022-12-09T05:00:48.968Z,2.30
2022-12-09T05:03:24.736Z,2.30
2022-12-09T05:06:07.062Z,2.30
2022-12-09T05:08:45.223Z,2.30
2022-12-09T05:11:24.117Z,2.40
2022-12-09T05:14:01.825Z,2.40
2022-12-09T05:16:38.869Z,2.40
2022-12-09T05:19:12.330Z,2.40
2022-12-09T05:21:44.244Z,2.30
2022-12-09T05:27:05.983Z,2.60
2022-12-09T05:29:37.968Z,2.50
2022-12-09T05:32:19.988Z,2.30
2022-12-09T05:34:52.832Z,2.20
2022-12-09T05:37:26.330Z,2.10
2022-12-09T05:39:59.895Z,2.10
2022-12-09T05:42:41.309Z,2.10
2022-12-09T05:45:14.469Z,2.00
2022-12-09T05:47:47.772Z,2.10
2022-12-09T05:50:18.739Z,2.00
2022-12-09T05:52:50.116Z,2.00
2022-12-09T05:55:25.967Z,2.00
2022-12-09T05:58:01.633Z,1.90
2022-12-09T06:00:37.086Z,2.00
2022-12-09T06:03:10.440Z,2.00
2022-12-09T06:05:54.226Z,2.10
2022-12-09T06:08:27.477Z,2.30
2022-12-09T06:11:12.960Z,2.30
2022-12-09T06:14:08.926Z,2.20
2022-12-09T06:17:05.483Z,2.20
2022-12-09T06:19:36.846Z,2.20
2022-12-09T06:22:30.603Z,2.30
2022-12-09T06:25:06.987Z,2.20
2022-12-09T06:27:53.230Z,2.20
2022-12-09T06:30:33.145Z,2.20
2022-12-09T06:33:17.307Z,2.20
2022-12-09T06:36:04.088Z,2.20
2022-12-09T06:38:50.788Z,2.20
2022-12-09T06:41:26.165Z,2.20
2022-12-09T06:44:01.437Z,2.10
2022-12-09T06:46:39.807Z,2.20
2022-12-09T06:49:24.748Z,2.10
2022-12-09T06:52:28.300Z,2.10
2022-12-09T06:55:06.537Z,2.00
2022-12-09T06:57:52.218Z,2.00
2022-12-09T07:00:25.292Z,2.00
2022-12-09T07:03:06.104Z,2.00
2022-12-09T07:05:46.213Z,2.20
2022-12-09T07:08:21.306Z,2.20
2022-12-09T07:10:56.215Z,2.10
2022-12-09T07:13:27.649Z,2.00
2022-12-09T07:16:14.964Z,2.00
2022-12-09T07:21:37.760Z,2.00
2022-12-09T07:24:13.988Z,2.00
2022-12-09T07:26:51.560Z,2.10
2022-12-09T07:29:26.505Z,2.00
2022-12-09T07:32:07.878Z,2.10
2022-12-09T07:34:59.485Z,2.10
2022-12-09T07:37:38.698Z,2.10
2022-12-09T07:40:11.791Z,2.20
2022-12-09T07:42:41.722Z,2.10
2022-12-09T07:45:17.163Z,2.10
2022-12-09T07:47:51.483Z,2.10
2022-12-09T07:50:28.403Z,2.10
2022-12-09T07:53:06.841Z,2.10
2022-12-09T07:55:50.596Z,2.20
2022-12-09T07:58:36.375Z,2.30
2022-12-09T08:01:14.157Z,2.30
2022-12-09T08:04:01.194Z,2.40
2022-12-09T08:06:57.853Z,2.40
2022-12-09T08:09:40.358Z,2.40
2022-12-09T08:12:33.178Z,2.40
2022-12-09T08:15:16.384Z,2.40
2022-12-09T08:18:13.581Z,2.40
2022-12-09T08:20:51.637Z,2.50
2022-12-09T08:23:26.302Z,2.50
2022-12-09T08:26:14.520Z,2.50
2022-12-09T08:29:03.461Z,2.40
2022-12-09T08:31:53.039Z,2.50
2022-12-09T08:37:49.195Z,2.60
2022-12-09T08:43:16.645Z,2.60
2022-12-09T08:45:53.231Z,2.70
2022-12-09T08:48:36.306Z,2.60
2022-12-09T08:51:07.240Z,2.50
2022-12-09T08:56:40.155Z,2.60
2022-12-09T08:59:20.837Z,2.50
2022-12-09T09:01:54.448Z,2.70
2022-12-09T09:04:30.118Z,2.70
2022-12-09T09:10:04.748Z,2.80
2022-12-09T09:15:37.554Z,2.70
2022-12-09T09:18:26.002Z,2.70
2022-12-09T09:21:07.071Z,2.80
2022-12-09T09:23:40.895Z,2.80
2022-12-09T09:26:20.068Z,2.90
2022-12-09T09:28:53.215Z,2.90
2022-12-09T09:31:28.243Z,2.90
2022-12-09T09:34:03.963Z,3.00
2022-12-09T09:36:41.412Z,3.00
2022-12-09T09:39:22.382Z,3.00
2022-12-09T09:44:56.940Z,2.90
2022-12-09T09:47:44.793Z,2.80
2022-12-09T09:50:44.016Z,3.10
2022-12-09T09:53:18.183Z,2.80
2022-12-09T09:56:00.694Z,2.80
2022-12-09T09:58:37.448Z,2.80
2022-12-09T10:01:17.585Z,2.90
2022-12-09T10:03:55.175Z,2.90
2022-12-09T10:06:35.331Z,2.90
2022-12-09T10:09:31.158Z,2.70
2022-12-09T10:12:03.401Z,2.70
2022-12-09T10:14:49.544Z,2.80
2022-12-09T10:17:28.345Z,2.80
2022-12-09T10:20:15.829Z,2.80
2022-12-09T10:23:03.068Z,2.80
2022-12-09T10:25:48.168Z,2.80
2022-12-09T10:28:23.924Z,2.80
2022-12-09T10:30:56.681Z,2.80
2022-12-09T10:33:32.365Z,2.90
2022-12-09T10:36:04.165Z,3.00
2022-12-09T10:38:39.834Z,3.20
2022-12-09T10:41:15.272Z,3.30
2022-12-09T10:43:50.663Z,3.30
2022-12-09T10:46:26.476Z,3.10
2022-12-09T10:49:08.386Z,3.00
2022-12-09T10:51:55.743Z,2.90
2022-12-09T10:54:47.078Z,2.70
2022-12-09T10:57:30.598Z,2.80
2022-12-09T11:00:16.150Z,2.80
2022-12-09T11:03:00.732Z,2.80
2022-12-09T11:05:36.674Z,2.90
2022-12-09T11:08:19.142Z,2.90
2022-12-09T11:10:58.509Z,2.90
2022-12-09T11:13:38.516Z,2.80
2022-12-09T11:16:14.204Z,2.90
2022-12-09T11:19:07.448Z,2.90
2022-12-09T11:21:49.305Z,2.80
2022-12-09T11:27:28.208Z,2.80
2022-12-09T11:30:40.648Z,2.80
2022-12-09T11:36:30.845Z,2.70
2022-12-09T11:39:21.611Z,2.80
2022-12-09T11:42:18.112Z,2.70
2022-12-09T11:45:01.264Z,2.70
2022-12-09T11:48:22.642Z,2.70
2022-12-09T11:50:49.483Z,2.70
2022-12-09T11:53:33.623Z,2.70
2022-12-09T11:56:14.069Z,2.70
2022-12-09T11:58:59.245Z,2.90
2022-12-09T12:01:34.881Z,2.80
2022-12-09T12:04:17.720Z,2.80
2022-12-09T12:07:04.435Z,2.70
2022-12-09T12:09:50.052Z,2.70
2022-12-09T12:12:26.947Z,2.60
2022-12-09T12:18:07.750Z,2.50
2022-12-09T12:20:52.436Z,2.50
2022-12-09T12:23:32.300Z,2.60
2022-12-09T12:26:07.792Z,2.60
2022-12-09T12:28:57.210Z,2.60
2022-12-09T12:31:41.399Z,2.60
2022-12-09T12:34:25.342Z,2.50
2022-12-09T12:40:26.773Z,2.60
2022-12-09T12:43:23.492Z,2.70
2022-12-09T12:49:17.924Z,2.70
2022-12-09T12:51:54.528Z,2.60
2022-12-09T12:54:36.283Z,2.60
2022-12-09T12:57:17.250Z,2.60
2022-12-09T13:00:11.607Z,2.60
2022-12-09T13:03:10.656Z,2.60
2022-12-09T13:06:07.667Z,2.80
2022-12-09T13:08:52.717Z,2.70
2022-12-09T13:11:25.661Z,2.70
2022-12-09T13:14:14.812Z,2.60
2022-12-09T13:16:52.540Z,2.60
2022-12-09T13:19:32.658Z,2.70
2022-12-09T13:22:18.664Z,2.60
2022-12-09T13:24:58.447Z,2.60
2022-12-09T13:27:35.483Z,2.60
2022-12-09T13:30:10.737Z,2.60
2022-12-09T13:32:58.633Z,2.60
2022-12-09T13:35:35.064Z,2.50
2022-12-09T13:38:18.169Z,2.50
2022-12-09T13:40:48.748Z,2.50
2022-12-09T13:43:27.351Z,2.50
2022-12-09T13:46:01.504Z,2.50
2022-12-09T13:48:44.630Z,2.60
2022-12-09T13:51:17.631Z,2.50
2022-12-09T13:53:52.134Z,2.50
2022-12-09T13:56:32.556Z,2.50
2022-12-09T13:59:21.425Z,2.40
2022-12-09T14:01:59.416Z,2.40
2022-12-09T14:04:38.143Z,2.40
2022-12-09T14:07:11.447Z,2.40
2022-12-09T14:09:55.068Z,2.40
2022-12-09T14:12:46.009Z,2.40
2022-12-09T14:15:37.761Z,2.40
2022-12-09T14:18:21.722Z,2.40
2022-12-09T14:21:21.781Z,2.40
2022-12-09T14:24:08.474Z,2.40
2022-12-09T14:26:42.298Z,2.30
2022-12-09T14:29:34.866Z,2.30
2022-12-09T14:32:06.259Z,2.30
2022-12-09T14:34:39.959Z,2.30
2022-12-09T14:37:51.150Z,2.30
2022-12-09T14:40:36.642Z,2.30
2022-12-09T14:43:26.678Z,2.40
2022-12-09T14:45:59.041Z,2.40
2022-12-09T14:48:33.357Z,2.40
2022-12-09T14:51:27.975Z,2.30
2022-12-09T14:57:03.450Z,2.20
2022-12-09T14:59:44.768Z,2.20
2022-12-09T15:05:23.581Z,2.30
2022-12-09T15:08:07.970Z,2.20
2022-12-09T15:10:56.054Z,2.20
2022-12-09T15:13:31.036Z,2.20
2022-12-09T15:16:44.077Z,2.20
2022-12-09T15:19:51.230Z,2.20
2022-12-09T15:22:25.320Z,2.10
2022-12-09T15:25:03.730Z,2.10
2022-12-09T15:27:46.083Z,2.20
2022-12-09T15:30:30.537Z,2.10
2022-12-09T15:33:06.269Z,2.10
2022-12-09T15:35:54.231Z,2.10
2022-12-09T15:38:37.377Z,2.10
2022-12-09T15:41:29.260Z,2.10
2022-12-09T15:44:11.962Z,2.00
2022-12-09T15:46:41.952Z,2.00
2022-12-09T15:49:23.886Z,2.00
2022-12-09T15:52:12.672Z,2.00
2022-12-09T15:54:44.872Z,2.00
2022-12-09T15:57:25.215Z,2.10
2022-12-09T16:00:05.499Z,2.10
2022-12-09T16:02:54.363Z,2.20
2022-12-09T16:05:34.972Z,2.00
2022-12-09T16:08:16.219Z,2.10
2022-12-09T16:11:08.080Z,2.10
2022-12-09T16:13:44.797Z,2.10
2022-12-09T16:16:29.599Z,2.10
2022-12-09T16:18:58.764Z,2.10
2022-12-09T16:24:44.092Z,2.10
2022-12-09T16:27:20.035Z,2.10
2022-12-09T16:29:56.047Z,2.20
2022-12-09T16:32:26.602Z,2.20
2022-12-09T16:34:58.224Z,2.20
2022-12-09T16:37:54.179Z,2.20
2022-12-09T16:43:57.617Z,2.20
2022-12-09T16:46:49.520Z,2.20
2022-12-09T16:52:20.260Z,2.20
2022-12-09T16:55:19.906Z,2.30
2022-12-09T16:58:07.473Z,2.20
2022-12-09T17:00:43.530Z,2.30
2022-12-09T17:03:34.267Z,2.30
2022-12-09T17:06:11.970Z,2.30
2022-12-09T17:09:05.148Z,2.30
2022-12-09T17:14:41.562Z,2.30
2022-12-09T17:17:31.402Z,2.20
2022-12-09T17:20:23.783Z,2.20
2022-12-09T17:23:00.090Z,2.30
2022-12-09T17:25:37.975Z,2.30
2022-12-09T17:34:00.107Z,2.30
2022-12-09T17:36:36.990Z,2.20
2022-12-09T17:39:08.040Z,2.20
2022-12-09T17:41:55.230Z,2.20
2022-12-09T17:44:30.562Z,2.20
2022-12-09T17:47:13.777Z,2.20
2022-12-09T17:49:59.274Z,2.20
2022-12-09T17:52:34.953Z,2.20
2022-12-09T17:55:08.364Z,2.20
2022-12-09T17:57:43.364Z,2.20
2022-12-09T18:00:32.546Z,2.20
2022-12-09T18:03:06.280Z,2.20
2022-12-09T18:05:47.709Z,2.20
2022-12-09T18:08:30.577Z,2.20
2022-12-09T18:11:25.969Z,2.20
2022-12-09T18:14:33.360Z,2.20
2022-12-09T18:17:10.165Z,2.20
2022-12-09T18:19:51.531Z,2.10
2022-12-09T18:22:35.511Z,2.10
2022-12-09T18:25:09.313Z,2.10
2022-12-09T18:27:54.306Z,2.10
2022-12-09T18:30:30.783Z,2.10
2022-12-09T18:35:46.549Z,2.20
2022-12-09T18:38:24.189Z,2.10
2022-12-09T18:41:05.541Z,2.10
2022-12-09T18:43:53.703Z,2.10
2022-12-09T18:46:39.344Z,2.10
2022-12-09T18:49:10.005Z,2.20
2022-12-09T18:52:11.520Z,2.20
2022-12-09T18:55:04.503Z,2.20
2022-12-09T18:57:33.552Z,2.20
2022-12-09T19:00:10.688Z,2.10
2022-12-09T19:02:45.558Z,2.10
2022-12-09T19:05:20.808Z,2.10
2022-12-09T19:07:54.097Z,2.10
2022-12-09T19:10:32.796Z,2.10
2022-12-09T19:13:14.377Z,2.10
2022-12-09T19:18:56.999Z,2.10
2022-12-09T19:24:27.815Z,2.00
2022-12-09T19:27:11.507Z,2.00
2022-12-09T19:29:53.099Z,2.00
2022-12-09T19:32:51.839Z,2.00
2022-12-09T19:38:07.590Z,2.00
2022-12-09T19:40:55.449Z,1.90
2022-12-09T19:43:37.831Z,1.90
2022-12-09T19:46:13.358Z,1.90
2022-12-09T19:48:49.245Z,1.90
2022-12-09T19:51:25.269Z,1.90
2022-12-09T19:53:58.378Z,1.90
2022-12-09T19:56:29.937Z,1.90
2022-12-09T19:59:28.051Z,1.90
2022-12-09T20:02:02.704Z,1.90
2022-12-09T20:04:48.761Z,1.80
2022-12-09T20:07:19.287Z,1.80
2022-12-09T20:09:56.689Z,1.80
2022-12-09T20:12:28.734Z,1.90
2022-12-09T20:15:03.990Z,1.80
2022-12-09T20:17:46.062Z,1.90
2022-12-09T20:20:35.809Z,1.90
2022-12-09T20:26:14.254Z,1.90
2022-12-09T20:29:06.361Z,1.90
2022-12-09T20:31:53.489Z,1.90
2022-12-09T20:34:23.970Z,1.90
2022-12-09T20:37:16.050Z,1.90
2022-12-09T20:39:56.621Z,1.80
2022-12-09T20:45:25.094Z,1.80
2022-12-09T20:48:17.272Z,1.90
2022-12-09T20:50:58.040Z,1.80
2022-12-09T20:53:32.159Z,1.70
2022-12-09T20:56:08.297Z,1.80
2022-12-09T21:01:25.619Z,1.70
2022-12-09T21:04:06.678Z,1.70
2022-12-09T21:06:41.133Z,1.70
2022-12-09T21:09:30.198Z,1.60
2022-12-09T21:12:06.531Z,1.70
2022-12-09T21:14:46.731Z,1.70
2022-12-09T21:20:41.488Z,1.60
2022-12-09T21:23:36.428Z,1.70
2022-12-09T21:26:27.812Z,1.70
2022-12-09T21:29:14.683Z,1.70
2022-12-09T21:32:04.434Z,1.70
2022-12-09T21:34:45.882Z,1.70
2022-12-09T21:40:20.917Z,1.70
2022-12-09T21:42:53.899Z,1.70
2022-12-09T21:45:31.515Z,1.70
2022-12-09T21:48:04.871Z,1.70
2022-12-09T21:50:37.905Z,1.60
2022-12-09T21:53:26.211Z,1.60
2022-12-09T21:56:09.890Z,1.60
2022-12-09T21:58:43.206Z,1.60
2022-12-09T22:01:31.861Z,1.50
2022-12-09T22:04:06.562Z,1.50
2022-12-09T22:06:57.433Z,1.50
2022-12-09T22:09:31.483Z,1.40
2022-12-09T22:12:21.260Z,1.40
2022-12-09T22:17:55.913Z,1.40
2022-12-09T22:21:16.095Z,1.40
2022-12-09T22:23:59.660Z,1.30
2022-12-09T22:26:44.472Z,1.40
2022-12-09T22:29:37.561Z,1.40
2022-12-09T22:32:15.011Z,1.40
2022-12-09T22:34:44.491Z,1.40
2022-12-09T22:37:46.372Z,1.40
2022-12-09T22:40:20.600Z,1.50
2022-12-09T22:43:11.497Z,1.40
2022-12-09T22:48:59.364Z,1.40
2022-12-09T22:52:00.761Z,1.40
2022-12-09T22:54:34.059Z,1.40
2022-12-09T22:57:22.199Z,1.30
2022-12-09T23:00:11.098Z,1.30
2022-12-09T23:02:48.379Z,1.30
2022-12-09T23:08:16.592Z,1.30
2022-12-09T23:11:05.086Z,1.30
2022-12-09T23:16:44.967Z,1.30
2022-12-09T23:19:41.192Z,1.30
2022-12-09T23:22:29.890Z,1.30
2022-12-09T23:25:17.727Z,1.20
2022-12-09T23:27:55.009Z,1.30
2022-12-09T23:30:31.171Z,1.30
2022-12-09T23:33:36.612Z,1.30
2022-12-09T23:36:23.651Z,1.30
2022-12-09T23:38:57.658Z,1.40
2022-12-09T23:41:35.647Z,1.40
2022-12-09T23:44:20.277Z,1.40
2022-12-09T23:50:40.437Z,1.20
